Time;durP1;ratioP1;P1;durP2;ratioP2;P2;SDS_P1;SDS_P2;PMS_P1;PMS_P2;Temp;Humidity;BMP_temperature;BMP_pressure;BME280_temperature;BME280_humidity;BME280_pressure;Samples;Min_cycle;Max_cycle;Signal;HPM_P1;HPM_P2
2021/06/27 00:00:27;;;;;;;;;;;17.90;56.90;;;;;;5052441;28;20218;-63
2021/06/27 00:02:52;;;;;;;;;;;17.90;99.90;;;;;;5052158;28;19917;-61
2021/06/27 00:05:20;;;;;;;;;;;17.90;99.90;;;;;;5051878;28;20253;-61
2021/06/27 00:07:45;;;;;;;;;;;17.80;99.90;;;;;;5032425;28;20008;-61
2021/06/27 00:10:12;;;;;;;;;;;17.80;1.00;;;;;;5052305;28;20036;-61
2021/06/27 00:12:39;;;;;;;;;;;17.80;1.00;;;;;;5051776;28;19947;-60
2021/06/27 00:15:06;;;;;;;;;;;17.70;1.00;;;;;;5052362;28;19956;-59
2021/06/27 00:17:32;;;;;;;;;;;17.70;1.00;;;;;;5050715;28;20345;-61
2021/06/27 00:19:57;;;;;;;;;;;17.70;1.00;;;;;;5052105;28;20040;-60
2021/06/27 00:22:23;;;;;;;;;;;17.70;1.00;;;;;;5053874;28;19928;-61
2021/06/27 00:24:48;;;;;;;;;;;17.70;1.00;;;;;;5051722;28;19967;-59
2021/06/27 00:27:14;;;;;;;;;;;17.70;1.00;;;;;;5051464;28;20370;-61
2021/06/27 00:29:39;;;;;;;;;;;17.60;1.00;;;;;;5051495;28;19970;-60
2021/06/27 00:32:05;;;;;;;;;;;17.60;1.00;;;;;;5051619;28;20230;-61
2021/06/27 00:34:30;;;;;;;;;;;17.50;1.00;;;;;;5052112;28;19917;-60
2021/06/27 00:36:56;;;;;;;;;;;17.50;1.00;;;;;;5050139;28;19996;-61
2021/06/27 00:39:21;;;;;;;;;;;17.50;1.00;;;;;;5050962;28;20341;-59
2021/06/27 00:41:46;;;;;;;;;;;17.50;1.00;;;;;;5051504;28;19921;-61
2021/06/27 00:44:12;;;;;;;;;;;17.50;1.00;;;;;;5051600;28;20376;-61
2021/06/27 00:46:38;;;;;;;;;;;17.40;1.00;;;;;;5050572;28;20221;-61
2021/06/27 00:49:03;;;;;;;;;;;17.40;1.00;;;;;;5050632;28;19916;-61
2021/06/27 00:51:28;;;;;;;;;;;17.40;1.00;;;;;;5049960;28;19909;-61
2021/06/27 00:53:54;;;;;;;;;;;17.40;3.40;;;;;;5051702;28;19916;-61
2021/06/27 00:56:20;;;;;;;;;;;17.40;17.00;;;;;;5052577;28;19916;-60
2021/06/27 00:58:46;;;;;;;;;;;17.40;60.50;;;;;;5052854;28;20368;-61
2021/06/27 01:01:11;;;;;;;;;;;17.40;99.90;;;;;;5051275;28;20233;-61
2021/06/27 01:03:37;;;;;;;;;;;17.30;99.90;;;;;;5051164;28;19923;-61
2021/06/27 01:06:02;;;;;;;;;;;17.30;99.90;;;;;;5050029;28;19935;-61
2021/06/27 01:08:28;;;;;;;;;;;17.30;99.90;;;;;;5049450;28;20380;-59
2021/06/27 01:10:54;;;;;;;;;;;17.30;99.90;;;;;;5050536;28;19987;-61
2021/06/27 01:13:24;;;;;;;;;;;17.30;99.90;;;;;;5051127;28;19943;-61
2021/06/27 01:15:50;;;;;;;;;;;17.30;99.90;;;;;;5050442;28;19913;-61
2021/06/27 01:18:16;;;;;;;;;;;17.30;99.90;;;;;;5050175;28;20340;-61
2021/06/27 01:20:42;;;;;;;;;;;17.30;99.90;;;;;;5050201;28;19909;-61
2021/06/27 01:23:12;;;;;;;;;;;17.30;99.90;;;;;;5053318;28;20334;-62
2021/06/27 01:25:39;;;;;;;;;;;17.30;99.90;;;;;;5051196;28;20264;-62
2021/06/27 01:28:05;;;;;;;;;;;17.30;99.90;;;;;;5050327;28;20386;-62
2021/06/27 01:30:31;;;;;;;;;;;17.20;99.90;;;;;;5050675;28;20056;-61
2021/06/27 01:32:57;;;;;;;;;;;17.20;99.90;;;;;;5051091;28;19913;-61
2021/06/27 01:35:25;;;;;;;;;;;17.20;99.90;;;;;;5050377;28;20074;-62
2021/06/27 01:37:52;;;;;;;;;;;17.20;99.90;;;;;;5049190;28;19909;-62
2021/06/27 01:40:18;;;;;;;;;;;17.20;99.90;;;;;;5050773;28;19920;-61
2021/06/27 01:42:44;;;;;;;;;;;17.10;99.90;;;;;;5050191;28;20357;-62
2021/06/27 01:45:11;;;;;;;;;;;17.10;1.00;;;;;;5050780;28;19913;-62
2021/06/27 01:47:37;;;;;;;;;;;17.10;1.00;;;;;;5049162;28;19999;-60
2021/06/27 01:50:03;;;;;;;;;;;17.20;1.00;;;;;;5050737;28;20051;-61
2021/06/27 01:52:29;;;;;;;;;;;17.10;1.00;;;;;;5049554;28;20342;-61
2021/06/27 01:54:54;;;;;;;;;;;17.10;1.00;;;;;;5049932;28;20013;-61
2021/06/27 01:57:20;;;;;;;;;;;17.10;1.00;;;;;;5048959;28;19936;-61
2021/06/27 01:59:50;;;;;;;;;;;17.00;99.90;;;;;;5050221;28;19913;-62
2021/06/27 02:02:16;;;;;;;;;;;17.00;1.00;;;;;;5049498;28;19908;-62
2021/06/27 02:04:42;;;;;;;;;;;17.00;99.90;;;;;;5050359;28;19917;-61
2021/06/27 02:07:07;;;;;;;;;;;16.90;1.00;;;;;;5048419;28;20330;-61
2021/06/27 02:09:33;;;;;;;;;;;16.90;1.00;;;;;;5049616;28;19954;-60
2021/06/27 02:11:59;;;;;;;;;;;16.90;1.00;;;;;;5049449;28;19909;-61
2021/06/27 02:14:24;;;;;;;;;;;16.80;1.00;;;;;;5049868;28;19939;-61
2021/06/27 02:16:50;;;;;;;;;;;16.70;1.00;;;;;;5048982;28;19931;-62
2021/06/27 02:19:15;;;;;;;;;;;16.70;1.00;;;;;;5048331;28;19908;-63
2021/06/27 02:21:41;;;;;;;;;;;16.70;1.00;;;;;;5051613;28;20334;-61
2021/06/27 02:24:07;;;;;;;;;;;16.70;1.00;;;;;;5050220;28;20220;-62
2021/06/27 02:26:33;;;;;;;;;;;16.70;1.00;;;;;;5049374;28;20246;-62
2021/06/27 02:28:58;;;;;;;;;;;16.70;1.00;;;;;;5048662;28;19982;-61
2021/06/27 02:31:25;;;;;;;;;;;16.70;1.00;;;;;;5048442;28;19939;-60
2021/06/27 02:33:50;;;;;;;;;;;16.60;1.00;;;;;;5049660;28;19982;-62
2021/06/27 02:36:16;;;;;;;;;;;16.60;1.00;;;;;;5047887;28;20354;-62
2021/06/27 02:38:42;;;;;;;;;;;16.60;1.00;;;;;;5048834;28;19939;-61
2021/06/27 02:41:08;;;;;;;;;;;16.60;1.00;;;;;;5048466;28;20341;-61
2021/06/27 02:43:34;;;;;;;;;;;16.60;1.00;;;;;;5049216;28;19920;-61
2021/06/27 02:45:59;;;;;;;;;;;16.60;1.00;;;;;;5048611;28;20003;-62
2021/06/27 02:48:25;;;;;;;;;;;16.60;1.00;;;;;;5048381;28;19908;-62
2021/06/27 02:50:51;;;;;;;;;;;16.60;1.00;;;;;;5047945;28;19915;-62
2021/06/27 02:53:16;;;;;;;;;;;16.50;1.00;;;;;;5048754;28;19912;-61
2021/06/27 02:55:42;;;;;;;;;;;16.60;1.00;;;;;;5048600;28;19919;-62
2021/06/27 02:58:07;;;;;;;;;;;16.50;1.00;;;;;;5048138;28;19920;-61
2021/06/27 03:00:33;;;;;;;;;;;16.50;1.00;;;;;;5048753;28;19921;-61
2021/06/27 03:02:59;;;;;;;;;;;16.40;1.00;;;;;;5048700;28;20376;-61
2021/06/27 03:05:24;;;;;;;;;;;16.40;1.00;;;;;;5048670;28;19909;-62
2021/06/27 03:07:50;;;;;;;;;;;16.40;1.00;;;;;;5047131;28;20430;-62
2021/06/27 03:10:17;;;;;;;;;;;16.40;1.00;;;;;;5048479;28;20007;-61
2021/06/27 03:12:44;;;;;;;;;;;16.40;1.00;;;;;;5048786;28;20309;-62
2021/06/27 03:15:10;;;;;;;;;;;16.50;1.00;;;;;;5048396;28;19928;-62
2021/06/27 03:17:36;;;;;;;;;;;16.50;1.00;;;;;;5047515;28;20439;-62
2021/06/27 03:20:02;;;;;;;;;;;16.60;1.00;;;;;;5048631;28;19916;-62
2021/06/27 03:22:28;;;;;;;;;;;16.60;1.00;;;;;;5050629;28;20008;-62
2021/06/27 03:24:53;;;;;;;;;;;16.70;1.00;;;;;;5048189;28;20003;-62
2021/06/27 03:27:20;;;;;;;;;;;16.80;1.00;;;;;;5047997;28;19919;-62
2021/06/27 03:29:46;;;;;;;;;;;16.80;1.00;;;;;;5048188;28;20338;-60
2021/06/27 03:32:11;;;;;;;;;;;16.90;1.00;;;;;;5047486;28;19917;-60
2021/06/27 03:34:37;;;;;;;;;;;17.00;1.00;;;;;;5048423;28;20012;-59
2021/06/27 03:37:03;;;;;;;;;;;17.10;1.00;;;;;;5046637;28;19974;-60
2021/06/27 03:39:28;;;;;;;;;;;17.10;1.00;;;;;;5047613;28;20242;-60
2021/06/27 03:41:54;;;;;;;;;;;17.20;1.00;;;;;;5048314;28;19985;-60
2021/06/27 03:44:20;;;;;;;;;;;17.30;1.00;;;;;;5048021;28;20276;-59
2021/06/27 03:46:46;;;;;;;;;;;17.50;1.00;;;;;;5047590;28;20306;-60
2021/06/27 03:49:12;;;;;;;;;;;17.70;99.90;;;;;;5047341;28;19968;-60
2021/06/27 03:51:37;;;;;;;;;;;17.90;99.90;;;;;;5046557;28;19964;-60
2021/06/27 03:54:03;;;;;;;;;;;18.10;1.00;;;;;;5048097;28;20000;-60
2021/06/27 03:56:29;;;;;;;;;;;18.40;1.00;;;;;;5047755;28;19913;-60
2021/06/27 03:58:54;;;;;;;;;;;18.70;1.00;;;;;;5047003;28;19961;-60
2021/06/27 04:01:20;;;;;;;;;;;19.00;99.90;;;;;;5046423;28;19916;-59
2021/06/27 04:03:46;;;;;;;;;;;19.30;82.50;;;;;;5047375;28;19923;-58
2021/06/27 04:06:11;;;;;;;;;;;19.50;99.90;;;;;;5045894;28;19921;-60
2021/06/27 04:08:37;;;;;;;;;;;19.70;1.00;;;;;;5043891;28;20400;-60
2021/06/27 04:11:02;;;;;;;;;;;19.70;1.00;;;;;;5046953;28;20389;-60
2021/06/27 04:13:28;;;;;;;;;;;19.80;99.90;;;;;;5047798;28;19909;-60
2021/06/27 04:15:54;;;;;;;;;;;19.90;99.90;;;;;;5046600;28;20223;-60
2021/06/27 04:18:20;;;;;;;;;;;20.00;1.00;;;;;;5046898;28;20004;-59
2021/06/27 04:20:46;;;;;;;;;;;20.20;1.00;;;;;;5046415;28;19913;-58
2021/06/27 04:23:12;;;;;;;;;;;20.00;1.00;;;;;;5046387;28;20047;-60
2021/06/27 04:25:37;;;;;;;;;;;19.80;1.00;;;;;;5046950;28;19924;-59
2021/06/27 04:28:03;;;;;;;;;;;19.60;1.00;;;;;;5045736;28;19909;-60
2021/06/27 04:30:29;;;;;;;;;;;19.30;99.90;;;;;;5046926;28;19917;-60
2021/06/27 04:32:54;;;;;;;;;;;19.20;1.00;;;;;;5046082;28;20314;-60
2021/06/27 04:35:20;;;;;;;;;;;19.00;1.00;;;;;;5047451;28;19913;-59
2021/06/27 04:37:45;;;;;;;;;;;18.90;99.90;;;;;;5045663;28;20336;-59
2021/06/27 04:40:11;;;;;;;;;;;18.80;1.00;;;;;;5047909;28;19912;-60
2021/06/27 04:42:36;;;;;;;;;;;18.80;99.90;;;;;;5048601;28;20250;-60
2021/06/27 04:45:02;;;;;;;;;;;18.80;1.00;;;;;;5050963;28;19913;-60
2021/06/27 04:47:28;;;;;;;;;;;18.80;99.90;;;;;;5049943;28;19963;-60
2021/06/27 04:49:53;;;;;;;;;;;18.90;1.00;;;;;;5051408;28;19916;-60
2021/06/27 04:52:19;;;;;;;;;;;19.10;1.00;;;;;;5049904;28;20290;-60
2021/06/27 04:54:44;;;;;;;;;;;19.10;99.90;;;;;;5051475;28;19990;-60
2021/06/27 04:57:10;;;;;;;;;;;19.20;99.90;;;;;;5050470;28;19917;-60
2021/06/27 04:59:35;;;;;;;;;;;19.30;99.90;;;;;;5050864;28;19909;-60
2021/06/27 05:02:01;;;;;;;;;;;19.40;45.80;;;;;;5050819;28;20246;-60
2021/06/27 05:04:26;;;;;;;;;;;19.70;1.00;;;;;;5051169;28;20012;-61
2021/06/27 05:06:52;;;;;;;;;;;20.10;9.60;;;;;;5049482;28;19909;-61
2021/06/27 05:09:17;;;;;;;;;;;20.40;1.00;;;;;;5050051;28;20298;-60
2021/06/27 05:11:43;;;;;;;;;;;20.60;3.90;;;;;;5051113;28;19909;-60
2021/06/27 05:14:08;;;;;;;;;;;20.80;1.00;;;;;;5050804;28;19921;-60
2021/06/27 05:16:34;;;;;;;;;;;20.80;1.00;;;;;;5050450;28;20369;-60
2021/06/27 05:18:59;;;;;;;;;;;20.80;1.00;;;;;;5049847;28;19916;-60
2021/06/27 05:21:24;;;;;;;;;;;20.60;1.00;;;;;;5048593;28;19924;-60
2021/06/27 05:23:50;;;;;;;;;;;20.40;1.00;;;;;;5050819;28;20410;-60
2021/06/27 05:26:16;;;;;;;;;;;20.30;1.00;;;;;;5050514;28;19934;-60
2021/06/27 05:28:41;;;;;;;;;;;20.10;1.00;;;;;;5050355;28;19920;-60
2021/06/27 05:31:07;;;;;;;;;;;20.20;1.00;;;;;;5049623;28;19980;-60
2021/06/27 05:33:32;;;;;;;;;;;20.10;1.00;;;;;;5051012;28;19912;-60
2021/06/27 05:35:58;;;;;;;;;;;20.20;1.00;;;;;;5049939;28;20292;-60
2021/06/27 05:38:25;;;;;;;;;;;20.20;13.80;;;;;;5049661;28;20085;-60
2021/06/27 05:40:50;;;;;;;;;;;20.20;46.90;;;;;;5050661;28;19909;-60
2021/06/27 05:43:16;;;;;;;;;;;20.10;99.90;;;;;;5049611;28;19913;-60
2021/06/27 05:45:41;;;;;;;;;;;20.00;99.90;;;;;;5050160;28;19971;-60
2021/06/27 05:48:07;;;;;;;;;;;20.00;99.90;;;;;;5049694;28;19912;-60
2021/06/27 05:50:32;;;;;;;;;;;20.10;99.90;;;;;;5049542;28;19912;-60
2021/06/27 05:52:58;;;;;;;;;;;20.20;99.90;;;;;;5049698;28;19909;-60
2021/06/27 05:55:23;;;;;;;;;;;20.30;99.90;;;;;;5049961;28;20274;-60
2021/06/27 05:57:49;;;;;;;;;;;20.30;99.90;;;;;;5049499;28;19956;-60
2021/06/27 06:00:14;;;;;;;;;;;20.50;27.90;;;;;;5050203;28;19913;-59
2021/06/27 06:02:40;;;;;;;;;;;20.60;1.00;;;;;;5049573;28;19916;-60
2021/06/27 06:05:06;;;;;;;;;;;20.60;1.00;;;;;;5049561;28;20006;-60
2021/06/27 06:07:31;;;;;;;;;;;20.70;1.00;;;;;;5047815;28;19970;-60
2021/06/27 06:09:56;;;;;;;;;;;20.80;1.00;;;;;;5050140;28;19936;-60
2021/06/27 06:12:22;;;;;;;;;;;20.70;1.00;;;;;;5049571;28;20331;-60
2021/06/27 06:14:48;;;;;;;;;;;20.40;1.00;;;;;;5050240;28;19916;-60
2021/06/27 06:17:13;;;;;;;;;;;20.50;1.00;;;;;;5065286;28;20288;-60
2021/06/27 06:19:40;;;;;;;;;;;20.70;1.00;;;;;;5057976;28;19908;-60
2021/06/27 06:22:06;;;;;;;;;;;21.10;1.00;;;;;;5048112;28;20394;-60
2021/06/27 06:24:31;;;;;;;;;;;21.70;1.00;;;;;;5049455;28;20049;-60
2021/06/27 06:26:57;;;;;;;;;;;22.40;99.90;;;;;;5048543;28;20025;-60
2021/06/27 06:29:22;;;;;;;;;;;23.00;1.00;;;;;;5049008;28;20377;-61
2021/06/27 06:31:48;;;;;;;;;;;23.60;1.00;;;;;;5049157;28;20007;-61
2021/06/27 06:34:14;;;;;;;;;;;24.20;1.00;;;;;;5049921;28;20339;-61
2021/06/27 06:36:39;;;;;;;;;;;24.80;99.90;;;;;;5047842;28;20365;-61
2021/06/27 06:39:05;;;;;;;;;;;25.10;99.90;;;;;;5048888;28;19909;-61
2021/06/27 06:41:31;;;;;;;;;;;25.80;99.90;;;;;;5049089;28;19966;-61
2021/06/27 06:43:57;;;;;;;;;;;26.90;99.90;;;;;;5049587;28;19950;-60
2021/06/27 06:46:22;;;;;;;;;;;28.10;99.90;;;;;;5048407;28;20371;-61
2021/06/27 06:48:48;;;;;;;;;;;29.00;99.90;;;;;;5048826;28;19908;-62
2021/06/27 06:51:15;;;;;;;;;;;30.10;99.90;;;;;;5047783;28;19924;-62
2021/06/27 06:53:41;;;;;;;;;;;31.20;99.90;;;;;;5067848;28;19987;-61
2021/06/27 06:56:06;;;;;;;;;;;32.70;99.90;;;;;;5068987;28;20006;-61
2021/06/27 06:58:32;;;;;;;;;;;33.00;99.90;;;;;;5068898;28;19985;-61
2021/06/27 07:00:58;;;;;;;;;;;34.20;99.90;;;;;;5068262;28;19981;-61
2021/06/27 07:03:24;;;;;;;;;;;34.20;99.90;;;;;;5052737;28;19923;-61
2021/06/27 07:05:50;;;;;;;;;;;34.50;99.90;;;;;;5046491;28;19912;-61
2021/06/27 07:08:15;;;;;;;;;;;35.00;99.90;;;;;;5039424;28;19916;-61
2021/06/27 07:10:41;;;;;;;;;;;35.80;99.90;;;;;;5048831;28;20096;-61
2021/06/27 07:13:06;;;;;;;;;;;36.30;99.90;;;;;;5049789;28;19947;-62
2021/06/27 07:15:32;;;;;;;;;;;36.90;99.90;;;;;;5047525;28;19939;-62
2021/06/27 07:17:57;;;;;;;;;;;37.80;99.90;;;;;;5047586;28;19908;-62
2021/06/27 07:20:23;;;;;;;;;;;38.20;99.90;;;;;;5047768;28;19943;-61
2021/06/27 07:22:48;;;;;;;;;;;38.20;99.90;;;;;;5047671;28;19924;-62
2021/06/27 07:25:14;;;;;;;;;;;38.10;99.90;;;;;;5047752;28;20270;-62
2021/06/27 07:27:40;;;;;;;;;;;38.40;99.90;;;;;;5047427;28;19913;-61
2021/06/27 07:30:06;;;;;;;;;;;38.60;99.90;;;;;;5047990;28;19987;-61
2021/06/27 07:32:32;;;;;;;;;;;38.00;99.90;;;;;;5029725;28;19924;-61
2021/06/27 07:34:57;;;;;;;;;;;38.40;99.90;;;;;;5048522;28;19913;-61
2021/06/27 07:37:23;;;;;;;;;;;39.10;99.90;;;;;;5046424;28;19909;-61
2021/06/27 07:39:48;;;;;;;;;;;38.70;99.90;;;;;;5048410;28;19931;-61
2021/06/27 07:42:14;;;;;;;;;;;37.90;99.90;;;;;;5048288;28;20000;-61
2021/06/27 07:44:40;;;;;;;;;;;38.00;99.90;;;;;;5048407;28;19917;-61
2021/06/27 07:47:05;;;;;;;;;;;38.00;98.40;;;;;;5046006;28;19936;-60
2021/06/27 07:49:31;;;;;;;;;;;38.10;95.00;;;;;;5046601;28;19917;-58
2021/06/27 07:51:56;;;;;;;;;;;38.90;93.30;;;;;;5046541;28;19913;-62
2021/06/27 07:54:22;;;;;;;;;;;38.80;91.10;;;;;;5048030;28;20312;-61
2021/06/27 07:56:47;;;;;;;;;;;38.80;87.00;;;;;;5044724;28;19909;-61
2021/06/27 07:59:14;;;;;;;;;;;39.30;82.60;;;;;;5047149;28;19936;-62
2021/06/27 08:01:40;;;;;;;;;;;39.70;79.20;;;;;;5047065;28;19957;-62
2021/06/27 08:04:06;;;;;;;;;;;40.60;73.70;;;;;;5047732;28;20056;-61
2021/06/27 08:06:31;;;;;;;;;;;40.70;65.50;;;;;;5046516;28;19982;-61
2021/06/27 08:08:57;;;;;;;;;;;40.60;59.10;;;;;;5042717;28;19960;-62
2021/06/27 08:11:22;;;;;;;;;;;41.30;58.30;;;;;;5047372;28;19928;-62
2021/06/27 08:13:48;;;;;;;;;;;41.50;53.30;;;;;;5048873;28;19909;-61
2021/06/27 08:16:14;;;;;;;;;;;41.20;49.20;;;;;;5047339;28;19932;-62
2021/06/27 08:18:39;;;;;;;;;;;42.30;47.70;;;;;;5049970;28;20003;-61
2021/06/27 08:21:05;;;;;;;;;;;42.30;44.00;;;;;;5050524;28;19916;-62
2021/06/27 08:23:31;;;;;;;;;;;41.80;38.70;;;;;;5051524;28;20012;-62
2021/06/27 08:25:56;;;;;;;;;;;40.80;35.30;;;;;;5051747;28;20289;-61
2021/06/27 08:28:21;;;;;;;;;;;40.60;32.80;;;;;;5050851;28;19995;-61
2021/06/27 08:30:47;;;;;;;;;;;40.10;31.00;;;;;;5051367;28;19924;-62
2021/06/27 08:33:13;;;;;;;;;;;39.80;29.60;;;;;;5051232;28;19916;-61
2021/06/27 08:35:38;;;;;;;;;;;40.30;30.40;;;;;;5050876;28;20055;-62
2021/06/27 08:38:04;;;;;;;;;;;40.20;29.40;;;;;;5050710;28;20380;-62
2021/06/27 08:40:29;;;;;;;;;;;40.20;29.40;;;;;;5051427;28;20273;-62
2021/06/27 08:42:55;;;;;;;;;;;40.30;28.60;;;;;;5051252;28;19919;-62
2021/06/27 08:45:23;;;;;;;;;;;40.10;27.20;;;;;;5051212;28;19913;-62
2021/06/27 08:47:50;;;;;;;;;;;39.30;26.50;;;;;;5050365;28;20365;-64
2021/06/27 08:50:16;;;;;;;;;;;39.50;27.00;;;;;;5050964;28;20373;-63
2021/06/27 08:52:43;;;;;;;;;;;40.20;27.40;;;;;;5050208;28;19982;-63
2021/06/27 08:55:08;;;;;;;;;;;40.90;27.70;;;;;;5051915;28;20012;-63
2021/06/27 08:57:34;;;;;;;;;;;40.80;26.40;;;;;;5050496;28;19920;-62
2021/06/27 09:00:00;;;;;;;;;;;41.00;25.90;;;;;;5051947;28;19909;-63
2021/06/27 09:02:26;;;;;;;;;;;41.10;24.60;;;;;;5050873;28;19923;-62
2021/06/27 09:04:51;;;;;;;;;;;40.30;22.90;;;;;;5050982;28;19975;-61
2021/06/27 09:07:27;;;;;;;;;;;39.90;22.90;;;;;;5047478;28;20357;-62
2021/06/27 09:09:53;;;;;;;;;;;40.40;33.40;;;;;;5050558;28;19935;-63
2021/06/27 09:12:19;;;;;;;;;;;40.50;21.70;;;;;;5049846;28;20008;-62
2021/06/27 09:14:45;;;;;;;;;;;40.60;20.90;;;;;;5050316;28;20019;-63
2021/06/27 09:17:11;;;;;;;;;;;40.90;20.30;;;;;;5049236;28;19920;-63
2021/06/27 09:19:52;;;;;;;;;;;41.00;19.90;;;;;;5049763;28;19966;-63
2021/06/27 09:22:22;;;;;;;;;;;41.50;19.90;;;;;;5048812;28;19916;-63
2021/06/27 09:24:48;;;;;;;;;;;41.60;17.40;;;;;;5050828;28;19925;-62
2021/06/27 09:27:14;;;;;;;;;;;41.10;15.40;;;;;;5050221;28;19919;-62
2021/06/27 09:29:40;;;;;;;;;;;41.00;15.60;;;;;;5050290;28;19921;-62
2021/06/27 09:32:13;;;;;;;;;;;41.30;14.00;;;;;;5050229;28;19992;-62
2021/06/27 09:34:41;;;;;;;;;;;40.80;12.50;;;;;;5051402;28;20360;-62
2021/06/27 09:37:07;;;;;;;;;;;41.10;12.20;;;;;;5024928;28;19913;-62
2021/06/27 09:39:33;;;;;;;;;;;41.30;11.00;;;;;;5048910;28;19923;-62
2021/06/27 09:42:03;;;;;;;;;;;41.20;10.50;;;;;;5050092;28;19928;-62
2021/06/27 09:44:29;;;;;;;;;;;41.50;10.20;;;;;;5050781;28;20034;-62
2021/06/27 09:46:55;;;;;;;;;;;41.10;9.30;;;;;;5049467;28;19912;-62
2021/06/27 09:49:26;;;;;;;;;;;41.00;9.00;;;;;;5049549;28;19995;-62
2021/06/27 09:51:53;;;;;;;;;;;40.90;8.00;;;;;;5048526;28;19992;-62
2021/06/27 09:54:20;;;;;;;;;;;41.00;7.20;;;;;;5049452;28;19950;-62
2021/06/27 09:56:46;;;;;;;;;;;41.00;7.40;;;;;;5048351;28;19916;-62
2021/06/27 09:59:12;;;;;;;;;;;41.00;6.20;;;;;;5049625;28;19935;-62
2021/06/27 10:01:38;;;;;;;;;;;40.80;5.10;;;;;;5048889;28;19909;-62
2021/06/27 10:04:05;;;;;;;;;;;41.10;5.20;;;;;;5049967;28;20336;-62
2021/06/27 10:06:32;;;;;;;;;;;40.80;4.70;;;;;;5048236;28;19948;-62
2021/06/27 10:09:08;;;;;;;;;;;40.60;13.10;;;;;;5048282;28;19920;-62
2021/06/27 10:11:33;;;;;;;;;;;40.10;2.80;;;;;;5047397;28;19913;-61
2021/06/27 10:14:04;;;;;;;;;;;40.60;3.70;;;;;;5049682;28;20237;-62
2021/06/27 10:16:32;;;;;;;;;;;40.60;1.90;;;;;;5048770;28;20505;-61
2021/06/27 10:18:58;;;;;;;;;;;39.00;1.00;;;;;;5048272;28;19912;-62
2021/06/27 10:21:25;;;;;;;;;;;38.80;1.00;;;;;;5046836;28;20038;-62
2021/06/27 10:23:51;;;;;;;;;;;39.40;1.00;;;;;;5049024;28;19912;-62
2021/06/27 10:26:18;;;;;;;;;;;39.90;1.20;;;;;;5047697;28;19917;-61
2021/06/27 10:28:44;;;;;;;;;;;39.50;1.00;;;;;;5047610;28;20243;-62
2021/06/27 10:31:11;;;;;;;;;;;38.80;1.00;;;;;;5047440;28;19913;-62
2021/06/27 10:33:37;;;;;;;;;;;38.50;1.00;;;;;;5048017;28;19908;-62
2021/06/27 10:36:04;;;;;;;;;;;38.40;1.00;;;;;;5046748;28;21936;-62
2021/06/27 10:38:32;;;;;;;;;;;38.00;1.00;;;;;;5047380;28;19992;-62
2021/06/27 10:40:59;;;;;;;;;;;37.90;1.00;;;;;;5047400;28;20343;-62
2021/06/27 10:43:25;;;;;;;;;;;37.40;1.00;;;;;;5049081;28;20316;-62
2021/06/27 10:45:52;;;;;;;;;;;36.90;1.00;;;;;;5042088;28;19919;-61
2021/06/27 10:48:35;;;;;;;;;;;37.00;1.00;;;;;;5048097;28;19931;-62
2021/06/27 10:51:02;;;;;;;;;;;36.80;1.00;;;;;;5047693;28;19920;-62
2021/06/27 10:53:27;;;;;;;;;;;37.00;1.00;;;;;;5048715;28;19913;-63
2021/06/27 10:55:59;;;;;;;;;;;37.10;1.00;;;;;;5047998;28;19916;-62
2021/06/27 10:58:35;;;;;;;;;;;37.80;1.00;;;;;;5039941;28;20345;-61
2021/06/27 11:01:01;;;;;;;;;;;37.20;1.00;;;;;;5040353;28;19995;-61
2021/06/27 11:03:26;;;;;;;;;;;36.00;1.00;;;;;;5044107;28;20279;-61
2021/06/27 11:05:57;;;;;;;;;;;34.70;1.00;;;;;;5047515;28;19923;-61
2021/06/27 11:08:30;;;;;;;;;;;34.70;1.20;;;;;;5028436;28;19916;-59
2021/06/27 11:10:57;;;;;;;;;;;34.70;2.50;;;;;;5047980;28;19913;-61
2021/06/27 11:13:22;;;;;;;;;;;34.00;2.70;;;;;;5048380;28;19909;-61
2021/06/27 11:15:50;;;;;;;;;;;33.10;4.50;;;;;;5047546;28;20269;-61
2021/06/27 11:18:30;;;;;;;;;;;32.50;5.60;;;;;;5047756;28;19913;-62
2021/06/27 11:20:56;;;;;;;;;;;32.60;7.30;;;;;;5028720;28;19987;-61
2021/06/27 11:23:40;;;;;;;;;;;32.70;8.80;;;;;;5047928;28;19913;-61
2021/06/27 11:26:05;;;;;;;;;;;33.00;10.40;;;;;;5048127;28;20373;-61
2021/06/27 11:28:31;;;;;;;;;;;33.40;12.50;;;;;;5046666;28;19913;-61
2021/06/27 11:31:15;;;;;;;;;;;33.00;12.80;;;;;;5047924;28;19921;-61
2021/06/27 11:33:40;;;;;;;;;;;33.10;14.30;;;;;;5048014;28;20003;-62
2021/06/27 11:36:23;;;;;;;;;;;33.90;16.90;;;;;;5047559;28;19964;-62
2021/06/27 11:38:49;;;;;;;;;;;34.10;17.70;;;;;;5048015;28;19908;-62
2021/06/27 11:41:18;;;;;;;;;;;33.70;17.00;;;;;;5047863;28;19916;-59
2021/06/27 11:43:52;;;;;;;;;;;33.40;17.30;;;;;;5048052;28;19928;-60
2021/06/27 11:46:27;;;;;;;;;;;33.40;17.50;;;;;;5041562;28;19967;-65
2021/06/27 11:48:53;;;;;;;;;;;32.50;16.40;;;;;;5047166;28;19913;-61
2021/06/27 11:51:19;;;;;;;;;;;32.40;17.40;;;;;;5047505;28;20057;-61
2021/06/27 11:53:45;;;;;;;;;;;;;;;;;;5052164;28;20005;-60
2021/06/27 11:56:15;;;;;;;;;;;32.00;9.70;;;;;;5050621;28;19909;-59
2021/06/27 11:58:40;;;;;;;;;;;31.50;18.20;;;;;;5031535;28;19909;-60
2021/06/27 12:01:08;;;;;;;;;;;31.20;19.20;;;;;;5048392;28;20158;-60
2021/06/27 12:03:33;;;;;;;;;;;31.00;19.60;;;;;;5043912;28;19923;-60
2021/06/27 12:06:01;;;;;;;;;;;31.00;21.20;;;;;;5044867;28;19912;-60
2021/06/27 12:08:27;;;;;;;;;;;31.00;22.80;;;;;;5044603;28;19956;-60
2021/06/27 12:10:55;;;;;;;;;;;31.00;24.20;;;;;;5048976;28;19929;-58
2021/06/27 12:13:22;;;;;;;;;;;30.90;25.10;;;;;;5047384;28;20049;-60
2021/06/27 12:15:48;;;;;;;;;;;30.90;25.60;;;;;;5048606;28;19909;-60
2021/06/27 12:18:19;;;;;;;;;;;30.80;25.80;;;;;;5047859;28;20341;-61
2021/06/27 12:20:47;;;;;;;;;;;30.40;26.00;;;;;;5028273;28;19968;-61
2021/06/27 12:23:16;;;;;;;;;;;30.10;26.40;;;;;;5046014;28;19966;-61
2021/06/27 12:25:43;;;;;;;;;;;30.10;38.60;;;;;;5048408;28;19912;-61
2021/06/27 12:28:13;;;;;;;;;;;29.80;27.40;;;;;;5047490;28;20353;-61
2021/06/27 12:30:41;;;;;;;;;;;29.40;28.40;;;;;;5047415;28;20008;-61
2021/06/27 12:33:08;;;;;;;;;;;29.40;29.30;;;;;;5048618;28;19932;-61
2021/06/27 12:35:35;;;;;;;;;;;28.40;29.20;;;;;;5048033;28;20387;-61
2021/06/27 12:38:01;;;;;;;;;;;28.60;31.20;;;;;;5046609;28;20433;-61
2021/06/27 12:40:27;;;;;;;;;;;28.80;34.00;;;;;;5048155;28;20322;-60
2021/06/27 12:42:53;;;;;;;;;;;28.90;35.10;;;;;;5048629;28;19913;-60
2021/06/27 12:45:19;;;;;;;;;;;28.50;36.00;;;;;;5048375;28;20386;-60
2021/06/27 12:47:45;;;;;;;;;;;28.40;37.40;;;;;;5047493;28;19913;-61
2021/06/27 12:50:11;;;;;;;;;;;28.40;36.30;;;;;;5048455;28;19916;-60
2021/06/27 12:52:36;;;;;;;;;;;28.50;37.70;;;;;;5046769;28;19924;-61
2021/06/27 12:55:09;;;;;;;;;;;28.60;39.30;;;;;;5048477;28;19970;-61
2021/06/27 12:57:34;;;;;;;;;;;28.80;40.90;;;;;;5046652;28;19912;-60
2021/06/27 13:00:00;;;;;;;;;;;28.90;41.80;;;;;;5048104;28;19920;-61
2021/06/27 13:02:34;;;;;;;;;;;28.70;43.20;;;;;;5046150;28;19913;-61
2021/06/27 13:05:03;;;;;;;;;;;28.60;43.20;;;;;;5046575;28;19928;-61
2021/06/27 13:07:29;;;;;;;;;;;28.60;44.50;;;;;;5045780;28;19966;-61
2021/06/27 13:10:01;;;;;;;;;;;28.70;44.70;;;;;;5048096;28;19940;-61
2021/06/27 13:12:28;;;;;;;;;;;28.70;45.40;;;;;;5047207;28;19916;-59
2021/06/27 13:15:07;;;;;;;;;;;28.80;45.80;;;;;;5048441;28;19908;-61
2021/06/27 13:17:40;;;;;;;;;;;28.50;44.30;;;;;;5046696;28;20338;-61
2021/06/27 13:20:13;;;;;;;;;;;28.60;44.50;;;;;;5047595;28;19909;-61
2021/06/27 13:22:59;;;;;;;;;;;28.60;44.80;;;;;;5045759;28;19962;-60
2021/06/27 13:25:32;;;;;;;;;;;28.70;45.80;;;;;;5040554;28;19959;-59
2021/06/27 13:27:58;;;;;;;;;;;28.70;45.00;;;;;;5046716;28;19913;-60
2021/06/27 13:30:24;;;;;;;;;;;28.70;43.80;;;;;;5047147;28;19958;-61
2021/06/27 13:33:09;;;;;;;;;;;28.70;43.40;;;;;;5047593;28;20003;-61
2021/06/27 13:35:36;;;;;;;;;;;28.50;43.00;;;;;;5046681;28;19913;-61
2021/06/27 13:38:03;;;;;;;;;;;28.50;43.70;;;;;;5048750;28;19916;-60
2021/06/27 13:40:29;;;;;;;;;;;28.70;44.20;;;;;;5050492;28;19925;-60
2021/06/27 13:42:54;;;;;;;;;;;28.40;41.30;;;;;;5050085;28;19939;-60
2021/06/27 13:45:23;;;;;;;;;;;28.50;42.30;;;;;;5050217;28;20366;-61
2021/06/27 13:47:50;;;;;;;;;;;28.70;42.20;;;;;;5048886;28;19909;-61
2021/06/27 13:50:16;;;;;;;;;;;29.00;42.00;;;;;;5049707;28;19984;-61
2021/06/27 13:52:41;;;;;;;;;;;29.00;41.90;;;;;;5049303;28;20275;-61
2021/06/27 13:55:07;;;;;;;;;;;28.90;40.10;;;;;;5049487;28;19919;-61
2021/06/27 13:57:32;;;;;;;;;;;28.80;38.30;;;;;;5048015;28;19934;-61
2021/06/27 13:59:58;;;;;;;;;;;29.00;38.90;;;;;;5050540;28;19920;-63
2021/06/27 14:02:23;;;;;;;;;;;28.80;37.40;;;;;;5048469;28;19991;-61
2021/06/27 14:04:49;;;;;;;;;;;28.80;37.60;;;;;;5049860;28;20349;-61
2021/06/27 14:07:16;;;;;;;;;;;28.90;36.70;;;;;;5043880;28;19913;-60
2021/06/27 14:09:42;;;;;;;;;;;29.00;36.60;;;;;;5029442;28;19909;-61
2021/06/27 14:12:07;;;;;;;;;;;28.50;35.40;;;;;;5029522;28;19920;-61
2021/06/27 14:14:33;;;;;;;;;;;28.60;36.30;;;;;;5036402;28;19909;-61
2021/06/27 14:17:01;;;;;;;;;;;28.60;36.30;;;;;;5049017;28;19909;-62
2021/06/27 14:19:26;;;;;;;;;;;28.60;36.40;;;;;;5048912;28;20257;-62